sensor_id;sensor_type;location;lat;lon;timestamp;P1;durP1;ratioP1;P2;durP2;ratioP2
43124;SDS011;49182;50.788;7.318;2023-08-06T00:01:38;7.20;;;3.40;;
43124;SDS011;49182;50.788;7.318;2023-08-06T00:06:40;6.57;;;2.63;;
43124;SDS011;49182;50.788;7.318;2023-08-06T00:11:43;6.13;;;2.22;;
43124;SDS011;49182;50.788;7.318;2023-08-06T00:16:45;5.78;;;3.17;;
43124;SDS011;49182;50.788;7.318;2023-08-06T00:21:47;3.47;;;2.05;;
43124;SDS011;49182;50.788;7.318;2023-08-06T00:26:50;7.13;;;2.42;;
43124;SDS011;49182;50.788;7.318;2023-08-06T00:31:52;4.22;;;2.67;;
43124;SDS011;49182;50.788;7.318;2023-08-06T00:36:54;4.32;;;2.08;;
43124;SDS011;49182;50.788;7.318;2023-08-06T00:41:57;6.55;;;2.30;;
43124;SDS011;49182;50.788;7.318;2023-08-06T00:46:59;5.05;;;3.25;;
43124;SDS011;49182;50.788;7.318;2023-08-06T00:52:01;4.03;;;2.42;;
43124;SDS011;49182;50.788;7.318;2023-08-06T00:57:05;3.65;;;2.10;;
43124;SDS011;49182;50.788;7.318;2023-08-06T01:02:08;5.60;;;1.92;;
43124;SDS011;49182;50.788;7.318;2023-08-06T01:12:38;3.85;;;2.42;;
43124;SDS011;49182;50.788;7.318;2023-08-06T01:17:46;5.20;;;2.83;;
43124;SDS011;49182;50.788;7.318;2023-08-06T01:22:51;4.25;;;2.53;;
43124;SDS011;49182;50.788;7.318;2023-08-06T01:27:54;3.90;;;2.42;;
43124;SDS011;49182;50.788;7.318;2023-08-06T01:33:05;4.97;;;2.65;;
43124;SDS011;49182;50.788;7.318;2023-08-06T01:38:12;7.15;;;2.00;;
43124;SDS011;49182;50.788;7.318;2023-08-06T01:43:14;4.55;;;3.78;;
43124;SDS011;49182;50.788;7.318;2023-08-06T01:48:16;5.35;;;2.70;;
43124;SDS011;49182;50.788;7.318;2023-08-06T01:53:19;4.68;;;2.60;;
43124;SDS011;49182;50.788;7.318;2023-08-06T01:58:21;5.68;;;3.10;;
43124;SDS011;49182;50.788;7.318;2023-08-06T02:03:23;8.32;;;3.85;;
43124;SDS011;49182;50.788;7.318;2023-08-06T02:08:26;7.40;;;2.63;;
43124;SDS011;49182;50.788;7.318;2023-08-06T02:13:28;3.63;;;2.38;;
43124;SDS011;49182;50.788;7.318;2023-08-06T02:18:30;4.82;;;2.17;;
43124;SDS011;49182;50.788;7.318;2023-08-06T02:23:35;4.28;;;2.70;;
43124;SDS011;49182;50.788;7.318;2023-08-06T02:28:36;3.38;;;2.17;;
43124;SDS011;49182;50.788;7.318;2023-08-06T02:33:38;4.50;;;2.13;;
43124;SDS011;49182;50.788;7.318;2023-08-06T02:38:41;4.45;;;2.90;;
43124;SDS011;49182;50.788;7.318;2023-08-06T02:43:43;4.18;;;2.25;;
43124;SDS011;49182;50.788;7.318;2023-08-06T02:48:45;4.50;;;2.17;;
43124;SDS011;49182;50.788;7.318;2023-08-06T02:53:48;3.85;;;2.30;;
43124;SDS011;49182;50.788;7.318;2023-08-06T02:58:52;4.07;;;1.98;;
43124;SDS011;49182;50.788;7.318;2023-08-06T03:04:17;3.38;;;2.25;;
43124;SDS011;49182;50.788;7.318;2023-08-06T03:09:22;5.00;;;2.60;;
43124;SDS011;49182;50.788;7.318;2023-08-06T03:14:26;6.68;;;2.58;;
43124;SDS011;49182;50.788;7.318;2023-08-06T03:19:27;5.45;;;2.60;;
43124;SDS011;49182;50.788;7.318;2023-08-06T03:24:32;5.82;;;2.45;;
43124;SDS011;49182;50.788;7.318;2023-08-06T03:29:34;2.90;;;2.03;;
43124;SDS011;49182;50.788;7.318;2023-08-06T03:34:37;3.63;;;1.88;;
43124;SDS011;49182;50.788;7.318;2023-08-06T03:44:42;10.45;;;2.05;;
43124;SDS011;49182;50.788;7.318;2023-08-06T03:49:45;3.72;;;1.75;;
43124;SDS011;49182;50.788;7.318;2023-08-06T03:54:50;3.97;;;1.83;;
43124;SDS011;49182;50.788;7.318;2023-08-06T03:59:52;3.75;;;2.13;;
43124;SDS011;49182;50.788;7.318;2023-08-06T04:04:58;6.43;;;2.50;;
43124;SDS011;49182;50.788;7.318;2023-08-06T04:10:02;4.88;;;1.88;;
43124;SDS011;49182;50.788;7.318;2023-08-06T04:15:06;4.38;;;2.63;;
43124;SDS011;49182;50.788;7.318;2023-08-06T04:20:08;5.22;;;1.60;;
43124;SDS011;49182;50.788;7.318;2023-08-06T04:25:12;3.45;;;1.63;;
43124;SDS011;49182;50.788;7.318;2023-08-06T04:30:14;3.72;;;2.20;;
43124;SDS011;49182;50.788;7.318;2023-08-06T04:35:16;2.90;;;2.03;;
43124;SDS011;49182;50.788;7.318;2023-08-06T04:40:19;6.25;;;1.52;;
43124;SDS011;49182;50.788;7.318;2023-08-06T04:45:21;3.40;;;1.25;;
43124;SDS011;49182;50.788;7.318;2023-08-06T04:50:23;4.68;;;2.42;;
43124;SDS011;49182;50.788;7.318;2023-08-06T04:55:26;3.30;;;2.10;;
43124;SDS011;49182;50.788;7.318;2023-08-06T05:00:28;3.22;;;1.48;;
43124;SDS011;49182;50.788;7.318;2023-08-06T05:05:29;3.63;;;1.58;;
43124;SDS011;49182;50.788;7.318;2023-08-06T05:10:33;4.28;;;1.75;;
43124;SDS011;49182;50.788;7.318;2023-08-06T05:15:34;6.93;;;1.80;;
43124;SDS011;49182;50.788;7.318;2023-08-06T05:20:36;4.93;;;1.80;;
43124;SDS011;49182;50.788;7.318;2023-08-06T05:25:39;3.63;;;1.80;;
43124;SDS011;49182;50.788;7.318;2023-08-06T05:30:41;3.75;;;1.80;;
43124;SDS011;49182;50.788;7.318;2023-08-06T05:35:43;2.47;;;1.30;;
43124;SDS011;49182;50.788;7.318;2023-08-06T05:40:46;3.15;;;0.98;;
43124;SDS011;49182;50.788;7.318;2023-08-06T05:45:49;3.45;;;2.05;;
43124;SDS011;49182;50.788;7.318;2023-08-06T05:50:51;2.88;;;1.35;;
43124;SDS011;49182;50.788;7.318;2023-08-06T05:55:54;2.47;;;1.45;;
43124;SDS011;49182;50.788;7.318;2023-08-06T06:00:56;3.65;;;1.67;;
43124;SDS011;49182;50.788;7.318;2023-08-06T06:05:58;3.75;;;1.30;;
43124;SDS011;49182;50.788;7.318;2023-08-06T06:11:03;3.50;;;1.67;;
43124;SDS011;49182;50.788;7.318;2023-08-06T06:16:05;2.90;;;1.45;;
43124;SDS011;49182;50.788;7.318;2023-08-06T06:21:07;3.63;;;1.23;;
43124;SDS011;49182;50.788;7.318;2023-08-06T06:26:10;2.30;;;1.23;;
43124;SDS011;49182;50.788;7.318;2023-08-06T06:31:12;1.85;;;0.70;;
43124;SDS011;49182;50.788;7.318;2023-08-06T06:36:14;2.38;;;0.73;;
43124;SDS011;49182;50.788;7.318;2023-08-06T06:41:17;2.13;;;0.60;;
43124;SDS011;49182;50.788;7.318;2023-08-06T06:46:18;1.25;;;0.57;;
43124;SDS011;49182;50.788;7.318;2023-08-06T06:51:20;4.75;;;0.95;;
43124;SDS011;49182;50.788;7.318;2023-08-06T06:56:23;1.35;;;0.60;;
43124;SDS011;49182;50.788;7.318;2023-08-06T07:01:25;2.72;;;0.60;;
43124;SDS011;49182;50.788;7.318;2023-08-06T07:06:27;2.95;;;0.63;;
43124;SDS011;49182;50.788;7.318;2023-08-06T07:11:31;4.53;;;1.27;;
43124;SDS011;49182;50.788;7.318;2023-08-06T07:16:32;2.10;;;1.10;;
43124;SDS011;49182;50.788;7.318;2023-08-06T07:21:34;1.50;;;0.85;;
43124;SDS011;49182;50.788;7.318;2023-08-06T07:26:37;1.17;;;0.65;;
43124;SDS011;49182;50.788;7.318;2023-08-06T07:31:39;2.05;;;0.73;;
43124;SDS011;49182;50.788;7.318;2023-08-06T07:36:43;1.45;;;0.73;;
43124;SDS011;49182;50.788;7.318;2023-08-06T07:41:46;3.10;;;1.30;;
43124;SDS011;49182;50.788;7.318;2023-08-06T07:46:48;4.97;;;1.23;;
43124;SDS011;49182;50.788;7.318;2023-08-06T07:51:49;1.88;;;1.08;;
43124;SDS011;49182;50.788;7.318;2023-08-06T07:56:52;3.35;;;0.75;;
43124;SDS011;49182;50.788;7.318;2023-08-06T08:01:54;2.15;;;0.90;;
43124;SDS011;49182;50.788;7.318;2023-08-06T08:06:56;2.20;;;0.93;;
43124;SDS011;49182;50.788;7.318;2023-08-06T08:11:59;2.05;;;0.80;;
43124;SDS011;49182;50.788;7.318;2023-08-06T08:17:02;2.92;;;1.10;;
43124;SDS011;49182;50.788;7.318;2023-08-06T08:22:04;1.90;;;1.10;;
43124;SDS011;49182;50.788;7.318;2023-08-06T08:27:07;2.30;;;1.33;;
43124;SDS011;49182;50.788;7.318;2023-08-06T08:32:09;2.92;;;1.20;;
43124;SDS011;49182;50.788;7.318;2023-08-06T08:37:10;3.35;;;1.13;;
43124;SDS011;49182;50.788;7.318;2023-08-06T08:42:13;15.48;;;5.88;;
43124;SDS011;49182;50.788;7.318;2023-08-06T08:47:16;3.20;;;1.52;;
43124;SDS011;49182;50.788;7.318;2023-08-06T08:52:18;2.95;;;1.42;;
43124;SDS011;49182;50.788;7.318;2023-08-06T08:57:22;2.50;;;1.27;;
43124;SDS011;49182;50.788;7.318;2023-08-06T09:02:25;3.58;;;1.55;;
43124;SDS011;49182;50.788;7.318;2023-08-06T09:07:32;2.17;;;1.38;;
43124;SDS011;49182;50.788;7.318;2023-08-06T09:12:39;2.33;;;1.55;;
43124;SDS011;49182;50.788;7.318;2023-08-06T09:17:42;2.95;;;1.38;;
43124;SDS011;49182;50.788;7.318;2023-08-06T09:22:44;2.90;;;1.02;;
43124;SDS011;49182;50.788;7.318;2023-08-06T09:27:47;3.53;;;1.70;;
43124;SDS011;49182;50.788;7.318;2023-08-06T09:32:49;3.53;;;1.92;;
43124;SDS011;49182;50.788;7.318;2023-08-06T09:37:50;2.75;;;1.63;;
43124;SDS011;49182;50.788;7.318;2023-08-06T09:47:55;3.10;;;1.60;;
43124;SDS011;49182;50.788;7.318;2023-08-06T09:52:59;3.03;;;1.85;;
43124;SDS011;49182;50.788;7.318;2023-08-06T09:58:02;4.30;;;2.30;;
43124;SDS011;49182;50.788;7.318;2023-08-06T10:03:05;3.53;;;1.65;;
43124;SDS011;49182;50.788;7.318;2023-08-06T10:08:08;6.00;;;1.30;;
43124;SDS011;49182;50.788;7.318;2023-08-06T10:13:11;2.50;;;1.05;;
43124;SDS011;49182;50.788;7.318;2023-08-06T10:18:14;1.42;;;0.80;;
43124;SDS011;49182;50.788;7.318;2023-08-06T10:23:18;1.48;;;0.65;;
43124;SDS011;49182;50.788;7.318;2023-08-06T10:28:21;0.70;;;0.32;;
43124;SDS011;49182;50.788;7.318;2023-08-06T10:33:22;4.00;;;0.90;;
43124;SDS011;49182;50.788;7.318;2023-08-06T10:38:25;1.75;;;0.43;;
43124;SDS011;49182;50.788;7.318;2023-08-06T10:43:28;2.20;;;0.60;;
43124;SDS011;49182;50.788;7.318;2023-08-06T10:48:32;0.88;;;0.38;;
43124;SDS011;49182;50.788;7.318;2023-08-06T10:53:35;2.05;;;0.55;;
43124;SDS011;49182;50.788;7.318;2023-08-06T10:58:39;0.90;;;0.47;;
43124;SDS011;49182;50.788;7.318;2023-08-06T11:03:41;1.00;;;0.70;;
43124;SDS011;49182;50.788;7.318;2023-08-06T11:08:47;1.52;;;0.90;;
43124;SDS011;49182;50.788;7.318;2023-08-06T11:13:51;3.28;;;0.93;;
43124;SDS011;49182;50.788;7.318;2023-08-06T11:18:53;2.20;;;1.08;;
43124;SDS011;49182;50.788;7.318;2023-08-06T11:23:55;2.33;;;0.85;;
43124;SDS011;49182;50.788;7.318;2023-08-06T11:28:58;2.80;;;1.20;;
43124;SDS011;49182;50.788;7.318;2023-08-06T11:34:00;1.92;;;1.38;;
43124;SDS011;49182;50.788;7.318;2023-08-06T11:39:02;3.63;;;1.08;;
43124;SDS011;49182;50.788;7.318;2023-08-06T11:44:05;3.63;;;1.23;;
43124;SDS011;49182;50.788;7.318;2023-08-06T11:49:07;1.83;;;0.95;;
43124;SDS011;49182;50.788;7.318;2023-08-06T11:54:09;1.90;;;0.73;;
43124;SDS011;49182;50.788;7.318;2023-08-06T11:59:12;2.28;;;1.10;;
43124;SDS011;49182;50.788;7.318;2023-08-06T12:04:14;3.03;;;0.75;;
43124;SDS011;49182;50.788;7.318;2023-08-06T12:09:16;2.65;;;2.00;;
43124;SDS011;49182;50.788;7.318;2023-08-06T12:14:20;1.65;;;0.73;;
43124;SDS011;49182;50.788;7.318;2023-08-06T12:19:21;4.60;;;1.23;;
43124;SDS011;49182;50.788;7.318;2023-08-06T12:24:23;2.72;;;0.75;;
43124;SDS011;49182;50.788;7.318;2023-08-06T12:29:26;2.30;;;0.82;;
43124;SDS011;49182;50.788;7.318;2023-08-06T12:34:28;3.20;;;0.85;;
43124;SDS011;49182;50.788;7.318;2023-08-06T12:39:43;2.85;;;1.00;;
43124;SDS011;49182;50.788;7.318;2023-08-06T12:44:46;1.70;;;0.82;;
43124;SDS011;49182;50.788;7.318;2023-08-06T12:49:49;3.95;;;1.30;;
43124;SDS011;49182;50.788;7.318;2023-08-06T12:54:51;7.10;;;1.40;;
43124;SDS011;49182;50.788;7.318;2023-08-06T12:59:54;1.80;;;0.90;;
43124;SDS011;49182;50.788;7.318;2023-08-06T13:04:56;2.10;;;0.80;;
43124;SDS011;49182;50.788;7.318;2023-08-06T13:09:58;4.30;;;0.95;;
43124;SDS011;49182;50.788;7.318;2023-08-06T13:15:01;3.38;;;1.48;;
43124;SDS011;49182;50.788;7.318;2023-08-06T13:20:02;2.63;;;1.15;;
43124;SDS011;49182;50.788;7.318;2023-08-06T13:25:05;3.42;;;1.08;;
43124;SDS011;49182;50.788;7.318;2023-08-06T13:30:09;2.35;;;0.85;;
43124;SDS011;49182;50.788;7.318;2023-08-06T13:35:11;2.88;;;1.40;;
43124;SDS011;49182;50.788;7.318;2023-08-06T13:40:13;2.20;;;0.82;;
43124;SDS011;49182;50.788;7.318;2023-08-06T13:45:16;2.08;;;0.82;;
43124;SDS011;49182;50.788;7.318;2023-08-06T13:50:19;2.28;;;1.00;;
43124;SDS011;49182;50.788;7.318;2023-08-06T13:55:21;2.42;;;0.80;;
43124;SDS011;49182;50.788;7.318;2023-08-06T14:00:24;2.90;;;1.08;;
43124;SDS011;49182;50.788;7.318;2023-08-06T14:05:26;3.20;;;1.23;;
43124;SDS011;49182;50.788;7.318;2023-08-06T14:10:27;2.20;;;0.85;;
43124;SDS011;49182;50.788;7.318;2023-08-06T14:15:30;1.63;;;0.85;;
43124;SDS011;49182;50.788;7.318;2023-08-06T14:20:32;3.53;;;1.65;;
43124;SDS011;49182;50.788;7.318;2023-08-06T14:25:34;6.80;;;2.03;;
43124;SDS011;49182;50.788;7.318;2023-08-06T14:30:37;4.25;;;1.05;;
43124;SDS011;49182;50.788;7.318;2023-08-06T14:35:39;3.53;;;1.40;;
43124;SDS011;49182;50.788;7.318;2023-08-06T14:40:41;3.15;;;1.23;;
43124;SDS011;49182;50.788;7.318;2023-08-06T14:45:46;2.13;;;0.90;;
43124;SDS011;49182;50.788;7.318;2023-08-06T14:50:48;2.65;;;0.90;;
43124;SDS011;49182;50.788;7.318;2023-08-06T14:55:49;2.97;;;1.05;;
43124;SDS011;49182;50.788;7.318;2023-08-06T15:00:52;2.20;;;1.10;;
43124;SDS011;49182;50.788;7.318;2023-08-06T15:05:54;2.65;;;0.60;;
43124;SDS011;49182;50.788;7.318;2023-08-06T15:10:56;1.40;;;0.63;;
43124;SDS011;49182;50.788;7.318;2023-08-06T15:15:59;1.88;;;0.90;;
43124;SDS011;49182;50.788;7.318;2023-08-06T15:21:01;2.70;;;0.63;;
43124;SDS011;49182;50.788;7.318;2023-08-06T15:26:02;2.05;;;0.60;;
43124;SDS011;49182;50.788;7.318;2023-08-06T15:31:05;2.58;;;1.45;;
43124;SDS011;49182;50.788;7.318;2023-08-06T15:36:07;1.63;;;0.80;;
43124;SDS011;49182;50.788;7.318;2023-08-06T15:41:09;3.03;;;0.73;;
43124;SDS011;49182;50.788;7.318;2023-08-06T15:46:12;0.82;;;0.60;;
43124;SDS011;49182;50.788;7.318;2023-08-06T15:51:14;0.65;;;0.65;;
43124;SDS011;49182;50.788;7.318;2023-08-06T15:56:15;0.90;;;0.50;;
43124;SDS011;49182;50.788;7.318;2023-08-06T16:01:18;1.08;;;0.90;;
43124;SDS011;49182;50.788;7.318;2023-08-06T16:06:20;1.23;;;0.57;;
43124;SDS011;49182;50.788;7.318;2023-08-06T16:11:22;1.08;;;0.35;;
43124;SDS011;49182;50.788;7.318;2023-08-06T16:16:25;1.27;;;0.85;;
43124;SDS011;49182;50.788;7.318;2023-08-06T16:21:27;1.08;;;0.50;;
43124;SDS011;49182;50.788;7.318;2023-08-06T16:26:28;1.33;;;0.63;;
43124;SDS011;49182;50.788;7.318;2023-08-06T16:31:31;2.47;;;0.80;;
43124;SDS011;49182;50.788;7.318;2023-08-06T16:36:33;2.17;;;1.20;;
43124;SDS011;49182;50.788;7.318;2023-08-06T16:41:35;2.92;;;0.68;;
43124;SDS011;49182;50.788;7.318;2023-08-06T16:46:38;2.00;;;0.70;;
43124;SDS011;49182;50.788;7.318;2023-08-06T16:51:40;2.22;;;1.15;;
43124;SDS011;49182;50.788;7.318;2023-08-06T16:56:42;2.05;;;0.82;;
43124;SDS011;49182;50.788;7.318;2023-08-06T17:01:45;2.85;;;1.02;;
43124;SDS011;49182;50.788;7.318;2023-08-06T17:06:47;2.05;;;0.98;;
43124;SDS011;49182;50.788;7.318;2023-08-06T17:11:49;1.73;;;0.93;;
43124;SDS011;49182;50.788;7.318;2023-08-06T17:16:52;2.15;;;0.88;;
43124;SDS011;49182;50.788;7.318;2023-08-06T17:21:54;2.90;;;1.05;;
43124;SDS011;49182;50.788;7.318;2023-08-06T17:26:56;1.95;;;0.88;;
43124;SDS011;49182;50.788;7.318;2023-08-06T17:31:59;3.63;;;1.23;;
43124;SDS011;49182;50.788;7.318;2023-08-06T17:37:00;1.52;;;1.20;;
43124;SDS011;49182;50.788;7.318;2023-08-06T17:42:02;2.13;;;0.88;;
43124;SDS011;49182;50.788;7.318;2023-08-06T17:47:06;1.52;;;0.73;;
43124;SDS011;49182;50.788;7.318;2023-08-06T17:52:08;2.85;;;1.27;;
43124;SDS011;49182;50.788;7.318;2023-08-06T17:57:09;3.10;;;1.90;;
43124;SDS011;49182;50.788;7.318;2023-08-06T18:02:12;1.95;;;0.88;;
43124;SDS011;49182;50.788;7.318;2023-08-06T18:07:14;2.00;;;0.88;;
43124;SDS011;49182;50.788;7.318;2023-08-06T18:12:16;1.73;;;1.02;;
43124;SDS011;49182;50.788;7.318;2023-08-06T18:17:19;1.17;;;0.75;;
43124;SDS011;49182;50.788;7.318;2023-08-06T18:22:21;2.50;;;1.10;;
43124;SDS011;49182;50.788;7.318;2023-08-06T18:27:23;1.90;;;1.35;;
43124;SDS011;49182;50.788;7.318;2023-08-06T18:32:26;2.70;;;1.50;;
43124;SDS011;49182;50.788;7.318;2023-08-06T18:37:27;1.92;;;1.33;;
43124;SDS011;49182;50.788;7.318;2023-08-06T18:42:29;2.05;;;0.95;;
43124;SDS011;49182;50.788;7.318;2023-08-06T18:47:32;2.05;;;1.25;;
43124;SDS011;49182;50.788;7.318;2023-08-06T18:52:34;2.22;;;0.85;;
43124;SDS011;49182;50.788;7.318;2023-08-06T18:57:36;6.20;;;1.33;;
43124;SDS011;49182;50.788;7.318;2023-08-06T19:02:39;2.97;;;0.93;;
43124;SDS011;49182;50.788;7.318;2023-08-06T19:07:41;1.88;;;0.80;;
43124;SDS011;49182;50.788;7.318;2023-08-06T19:12:43;2.42;;;0.77;;
43124;SDS011;49182;50.788;7.318;2023-08-06T19:17:46;3.47;;;2.35;;
43124;SDS011;49182;50.788;7.318;2023-08-06T19:22:47;2.38;;;1.15;;
43124;SDS011;49182;50.788;7.318;2023-08-06T19:27:49;2.53;;;0.82;;
43124;SDS011;49182;50.788;7.318;2023-08-06T19:32:52;1.60;;;0.47;;
43124;SDS011;49182;50.788;7.318;2023-08-06T19:37:54;4.28;;;1.60;;
43124;SDS011;49182;50.788;7.318;2023-08-06T19:42:56;2.70;;;0.70;;
43124;SDS011;49182;50.788;7.318;2023-08-06T19:47:59;1.38;;;0.82;;
43124;SDS011;49182;50.788;7.318;2023-08-06T19:53:00;4.07;;;1.02;;
43124;SDS011;49182;50.788;7.318;2023-08-06T19:58:02;2.95;;;1.20;;
43124;SDS011;49182;50.788;7.318;2023-08-06T20:03:05;3.58;;;2.17;;
43124;SDS011;49182;50.788;7.318;2023-08-06T20:08:07;3.47;;;1.02;;
43124;SDS011;49182;50.788;7.318;2023-08-06T20:13:09;5.40;;;1.55;;
43124;SDS011;49182;50.788;7.318;2023-08-06T20:18:12;3.63;;;0.85;;
43124;SDS011;49182;50.788;7.318;2023-08-06T20:23:14;4.13;;;1.25;;
43124;SDS011;49182;50.788;7.318;2023-08-06T20:28:15;3.53;;;1.20;;
43124;SDS011;49182;50.788;7.318;2023-08-06T20:33:19;6.07;;;1.85;;
43124;SDS011;49182;50.788;7.318;2023-08-06T20:38:20;4.97;;;1.52;;
43124;SDS011;49182;50.788;7.318;2023-08-06T20:43:22;3.97;;;2.30;;
43124;SDS011;49182;50.788;7.318;2023-08-06T20:48:25;6.45;;;1.90;;
43124;SDS011;49182;50.788;7.318;2023-08-06T20:53:27;5.07;;;2.85;;
43124;SDS011;49182;50.788;7.318;2023-08-06T20:58:28;4.25;;;2.05;;
43124;SDS011;49182;50.788;7.318;2023-08-06T21:03:32;2.42;;;1.40;;
43124;SDS011;49182;50.788;7.318;2023-08-06T21:08:35;5.57;;;1.42;;
43124;SDS011;49182;50.788;7.318;2023-08-06T21:13:37;5.38;;;1.83;;
43124;SDS011;49182;50.788;7.318;2023-08-06T21:18:40;3.75;;;1.20;;
43124;SDS011;49182;50.788;7.318;2023-08-06T21:23:41;8.10;;;1.27;;
43124;SDS011;49182;50.788;7.318;2023-08-06T21:28:43;5.60;;;1.67;;
43124;SDS011;49182;50.788;7.318;2023-08-06T21:33:46;4.90;;;1.38;;
43124;SDS011;49182;50.788;7.318;2023-08-06T21:38:48;4.15;;;1.35;;
43124;SDS011;49182;50.788;7.318;2023-08-06T21:43:50;4.97;;;1.40;;
43124;SDS011;49182;50.788;7.318;2023-08-06T21:48:53;5.97;;;2.00;;
43124;SDS011;49182;50.788;7.318;2023-08-06T21:53:55;4.10;;;1.08;;
43124;SDS011;49182;50.788;7.318;2023-08-06T21:58:59;5.38;;;1.27;;
43124;SDS011;49182;50.788;7.318;2023-08-06T22:04:03;4.50;;;1.52;;
43124;SDS011;49182;50.788;7.318;2023-08-06T22:09:05;7.30;;;1.65;;
43124;SDS011;49182;50.788;7.318;2023-08-06T22:14:06;3.70;;;1.42;;
43124;SDS011;49182;50.788;7.318;2023-08-06T22:19:10;8.93;;;2.15;;
43124;SDS011;49182;50.788;7.318;2023-08-06T22:24:11;9.27;;;1.63;;
43124;SDS011;49182;50.788;7.318;2023-08-06T22:29:13;2.55;;;1.50;;
43124;SDS011;49182;50.788;7.318;2023-08-06T22:34:16;5.38;;;1.58;;
43124;SDS011;49182;50.788;7.318;2023-08-06T22:39:18;4.28;;;1.92;;
43124;SDS011;49182;50.788;7.318;2023-08-06T22:44:19;6.15;;;1.30;;
43124;SDS011;49182;50.788;7.318;2023-08-06T22:49:22;3.20;;;1.33;;
43124;SDS011;49182;50.788;7.318;2023-08-06T22:54:24;5.22;;;1.77;;
43124;SDS011;49182;50.788;7.318;2023-08-06T22:59:26;5.13;;;1.25;;
43124;SDS011;49182;50.788;7.318;2023-08-06T23:04:29;7.85;;;1.48;;
43124;SDS011;49182;50.788;7.318;2023-08-06T23:09:31;4.20;;;1.85;;
43124;SDS011;49182;50.788;7.318;2023-08-06T23:14:32;8.50;;;1.55;;
43124;SDS011;49182;50.788;7.318;2023-08-06T23:19:35;3.13;;;1.80;;
43124;SDS011;49182;50.788;7.318;2023-08-06T23:24:37;4.82;;;1.60;;
43124;SDS011;49182;50.788;7.318;2023-08-06T23:29:39;4.68;;;1.67;;
43124;SDS011;49182;50.788;7.318;2023-08-06T23:34:42;5.60;;;1.48;;
43124;SDS011;49182;50.788;7.318;2023-08-06T23:39:54;10.85;;;1.67;;
43124;SDS011;49182;50.788;7.318;2023-08-06T23:44:55;8.82;;;2.47;;
43124;SDS011;49182;50.788;7.318;2023-08-06T23:49:59;7.45;;;2.30;;
43124;SDS011;49182;50.788;7.318;2023-08-06T23:55:00;4.35;;;1.45;;
